Plus Loin — FAA3193 — position and weather

sailwx.info

Track history (hours):
 
Tides and Currents Weather Stations Pressure Air Temp Water Temp Dewpoint Dewpoint Depression Visibility Wind Speed Wind Dir Waves Ship Positions

Plus Loin

Last reported at 2018-Jun-23 14:03 UTC. Time now 2018-Jun-25 04:27 UTC.
Position N 48°39' W 002°03'.

Length 9 m.

Type: Sailing vessel. MMSI: 227110240.

Date/timePositionNaut miles runAvg speedWind from/ knotsBaromVisibWave heightAir tempDewpointWater temp
2018-Jun-23 14:03N 48°39' W 002°03'1 5.3
2018-Jun-23 13:54N 48°40' W 002°04'2 3.5
2018-Jun-23 13:28N 48°41' W 002°04'2 2.8
2018-Jun-23 12:45N 48°40' W 002°02'1 4.2
2018-Jun-23 12:30N 48°39' W 002°03'  
2018-Jun-18 11:55N 48°39' W 002°04'2 3.2
2018-Jun-18 11:24N 48°40' W 002°06'2 3.6
2018-Jun-18 10:55N 48°40' W 002°09'1 3.7
2018-Jun-18 10:30N 48°39' W 002°11'2 3.9
2018-Jun-18 09:54N 48°39' W 002°14'0 0.9
2018-Jun-18 09:25N 48°38' W 002°15'0 0.1
2018-Jun-18 08:44N 48°38' W 002°15'  
2018-Jun-13 17:25N 48°38' W 002°02'1 1.5
2018-Jun-13 17:00N 48°38' W 002°02'2 2.8
2018-Jun-13 16:15N 48°40' W 002°04'0 0.7
2018-Jun-13 15:53N 48°40' W 002°04'  
Track history (hours):
 
Tides and Currents Weather Stations Pressure Air Temp Water Temp Dewpoint Dewpoint Depression Visibility Wind Speed Wind Dir Waves Ship Positions

Plus Loin

Last reported at 2018-Jun-23 14:03 UTC. Time now 2018-Jun-25 04:27 UTC.
Position N 48°39' W 002°03'.

Length 9 m.

Type: Sailing vessel. MMSI: 227110240.

Date/timePositionNaut miles runAvg speedWind from/ knotsBaromVisibWave heightAir tempDewpointWater temp
2018-Jun-23 14:03N 48°39' W 002°03'1 5.3
2018-Jun-23 13:54N 48°40' W 002°04'2 3.5
2018-Jun-23 13:28N 48°41' W 002°04'2 2.8
2018-Jun-23 12:45N 48°40' W 002°02'1 4.2
2018-Jun-23 12:30N 48°39' W 002°03'  
2018-Jun-18 11:55N 48°39' W 002°04'2 3.2
2018-Jun-18 11:24N 48°40' W 002°06'2 3.6
2018-Jun-18 10:55N 48°40' W 002°09'1 3.7
2018-Jun-18 10:30N 48°39' W 002°11'2 3.9
2018-Jun-18 09:54N 48°39' W 002°14'0 0.9
2018-Jun-18 09:25N 48°38' W 002°15'0 0.1
2018-Jun-18 08:44N 48°38' W 002°15'  
2018-Jun-13 17:25N 48°38' W 002°02'1 1.5
2018-Jun-13 17:00N 48°38' W 002°02'2 2.8
2018-Jun-13 16:15N 48°40' W 002°04'0 0.7
2018-Jun-13 15:53N 48°40' W 002°04'  

Dump ship's entire track history